createdAt,value
2023-05-14T00:00:59.913Z,54.76
2023-05-14T00:01:59.951Z,54.02
2023-05-14T00:02:59.975Z,52.78
2023-05-14T00:04:00.092Z,52.42
2023-05-14T00:04:59.836Z,53.72
2023-05-14T00:05:59.844Z,54.33
2023-05-14T00:06:59.820Z,52.99
2023-05-14T00:07:59.826Z,52.44
2023-05-14T00:08:59.798Z,51.97
2023-05-14T00:09:59.770Z,52.70
2023-05-14T00:10:59.772Z,51.68
2023-05-14T00:11:59.754Z,51.97
2023-05-14T00:12:59.771Z,52.37
2023-05-14T00:13:59.731Z,50.75
2023-05-14T00:14:59.716Z,50.90
2023-05-14T00:15:59.726Z,51.53
2023-05-14T00:16:59.688Z,50.03
2023-05-14T00:17:59.705Z,51.44
2023-05-14T00:18:59.703Z,48.62
2023-05-14T00:19:59.657Z,51.45
2023-05-14T00:20:59.627Z,53.17
2023-05-14T00:21:59.644Z,52.83
2023-05-14T00:22:59.605Z,49.19
2023-05-14T00:23:59.633Z,51.48
2023-05-14T00:24:59.606Z,51.83
2023-05-14T00:25:59.603Z,51.41
2023-05-14T00:26:59.567Z,51.08
2023-05-14T00:27:59.588Z,52.73
2023-05-14T00:28:59.577Z,52.24
2023-05-14T00:29:59.529Z,51.51
2023-05-14T00:30:59.572Z,51.90
2023-05-14T00:31:59.526Z,53.53
2023-05-14T00:32:59.565Z,51.56
2023-05-14T00:33:59.505Z,52.05
2023-05-14T00:34:59.540Z,50.34
2023-05-14T00:35:59.484Z,51.89
2023-05-14T00:36:59.447Z,52.75
2023-05-14T00:37:59.446Z,51.49
2023-05-14T00:38:59.435Z,50.99
2023-05-14T00:39:59.458Z,52.35
2023-05-14T00:40:59.403Z,51.55
2023-05-14T00:41:59.408Z,51.98
2023-05-14T00:42:59.390Z,51.94
2023-05-14T00:43:59.372Z,51.78
2023-05-14T00:44:59.370Z,50.45
2023-05-14T00:45:59.410Z,51.14
2023-05-14T00:46:59.503Z,51.35
2023-05-14T00:47:59.359Z,52.51
2023-05-14T00:48:59.297Z,53.68
2023-05-14T00:49:59.295Z,53.10
2023-05-14T00:50:59.332Z,50.20
2023-05-14T00:51:59.271Z,49.48
2023-05-14T00:52:59.262Z,51.24
2023-05-14T00:53:59.258Z,52.92
2023-05-14T00:55:00.231Z,49.87
2023-05-14T00:55:59.265Z,50.73
2023-05-14T00:56:59.215Z,51.30
2023-05-14T00:57:59.204Z,49.82
2023-05-14T00:58:59.187Z,53.66
2023-05-14T00:59:59.170Z,53.99
2023-05-14T01:00:59.155Z,49.89
2023-05-14T01:01:59.194Z,52.30
2023-05-14T01:02:59.185Z,49.19
2023-05-14T01:03:59.288Z,49.99
2023-05-14T01:04:59.132Z,50.58
2023-05-14T01:05:59.109Z,51.12
2023-05-14T01:06:59.129Z,51.24
2023-05-14T01:07:59.302Z,49.95
2023-05-14T01:08:59.076Z,51.27
2023-05-14T01:09:59.058Z,50.58
2023-05-14T01:10:59.032Z,49.66
2023-05-14T01:11:59.108Z,51.80
2023-05-14T01:12:59.042Z,49.93
2023-05-14T01:13:59.017Z,52.62
2023-05-14T01:14:58.993Z,51.05
2023-05-14T01:15:59.050Z,53.60
2023-05-14T01:16:59.178Z,50.41
2023-05-14T01:17:59.039Z,52.33
2023-05-14T01:18:58.967Z,52.68
2023-05-14T01:19:58.943Z,51.22
2023-05-14T01:20:58.909Z,50.24
2023-05-14T01:21:58.957Z,51.57
2023-05-14T01:22:58.945Z,50.43
2023-05-14T01:23:58.894Z,53.08
2023-05-14T01:24:58.899Z,54.15
2023-05-14T01:25:58.852Z,53.65
2023-05-14T01:26:58.855Z,51.55
2023-05-14T01:27:58.881Z,51.67
2023-05-14T01:28:58.824Z,54.16
2023-05-14T01:29:58.828Z,54.51
2023-05-14T01:30:58.821Z,51.86
2023-05-14T01:31:58.822Z,51.85
2023-05-14T01:32:58.835Z,52.14
2023-05-14T01:33:58.793Z,54.29
2023-05-14T01:34:58.756Z,53.01
2023-05-14T01:35:58.808Z,51.86
2023-05-14T01:36:58.736Z,54.85
2023-05-14T01:37:58.706Z,50.79
2023-05-14T01:38:59.743Z,53.03
2023-05-14T01:39:58.687Z,51.88
2023-05-14T01:40:58.673Z,51.10
2023-05-14T01:41:58.679Z,52.88
2023-05-14T01:42:58.685Z,52.05
2023-05-14T01:43:58.678Z,51.44
2023-05-14T01:44:58.649Z,52.00
2023-05-14T01:45:58.673Z,52.24
2023-05-14T01:46:58.627Z,51.01
2023-05-14T01:47:58.678Z,51.88
2023-05-14T01:48:58.643Z,50.33
2023-05-14T01:49:58.641Z,52.37
2023-05-14T01:50:58.615Z,50.37
2023-05-14T01:51:58.635Z,50.70
2023-05-14T01:52:58.654Z,52.42
2023-05-14T01:53:58.614Z,51.42
2023-05-14T01:54:58.569Z,51.08
2023-05-14T01:55:58.601Z,51.78
2023-05-14T01:56:58.520Z,52.43
2023-05-14T01:57:58.481Z,54.06
2023-05-14T01:58:58.573Z,51.87
2023-05-14T01:59:58.461Z,52.58
2023-05-14T02:00:58.486Z,52.43
2023-05-14T02:01:58.649Z,51.00
2023-05-14T02:02:59.024Z,51.12
2023-05-14T02:03:58.464Z,50.86
2023-05-14T02:04:58.426Z,51.99
2023-05-14T02:05:58.391Z,51.06
2023-05-14T02:06:58.374Z,53.04
2023-05-14T02:07:58.358Z,50.47
2023-05-14T02:08:58.369Z,51.67
2023-05-14T02:09:58.357Z,51.56
2023-05-14T02:10:58.345Z,54.69
2023-05-14T02:11:58.814Z,53.29
2023-05-14T02:12:58.335Z,54.24
2023-05-14T02:13:58.324Z,52.92
2023-05-14T02:14:58.288Z,51.12
2023-05-14T02:15:58.401Z,50.11
2023-05-14T02:16:58.293Z,51.10
2023-05-14T02:17:58.261Z,54.33
2023-05-14T02:18:58.318Z,50.09
2023-05-14T02:19:58.239Z,50.79
2023-05-14T02:20:58.204Z,52.51
2023-05-14T02:21:58.200Z,53.45
2023-05-14T02:22:58.222Z,52.80
2023-05-14T02:23:58.209Z,51.56
2023-05-14T02:24:58.180Z,52.25
2023-05-14T02:25:58.378Z,53.69
2023-05-14T02:26:58.144Z,52.17
2023-05-14T02:27:58.115Z,53.66
2023-05-14T02:28:58.131Z,52.79
2023-05-14T02:29:58.161Z,52.68
2023-05-14T02:30:58.123Z,51.83
2023-05-14T02:31:58.106Z,51.80
2023-05-14T02:32:58.136Z,52.25
2023-05-14T02:33:58.078Z,53.81
2023-05-14T02:34:58.086Z,55.28
2023-05-14T02:35:58.057Z,51.78
2023-05-14T02:36:58.010Z,54.85
2023-05-14T02:37:58.015Z,53.24
2023-05-14T02:38:58.091Z,53.36
2023-05-14T02:39:57.997Z,52.99
2023-05-14T02:40:58.008Z,55.04
2023-05-14T02:41:57.954Z,54.24
2023-05-14T02:42:57.966Z,55.50
2023-05-14T02:43:57.931Z,55.57
2023-05-14T02:44:57.921Z,56.75
2023-05-14T02:45:57.954Z,53.84
2023-05-14T02:46:57.934Z,53.78
2023-05-14T02:47:57.958Z,54.29
2023-05-14T02:48:57.888Z,54.43
2023-05-14T02:49:57.874Z,55.45
2023-05-14T02:50:57.857Z,54.48
2023-05-14T02:51:57.897Z,54.99
2023-05-14T02:52:57.842Z,53.46
2023-05-14T02:53:57.815Z,55.19
2023-05-14T02:54:57.804Z,54.25
2023-05-14T02:55:57.807Z,54.83
2023-05-14T02:56:57.812Z,53.75
2023-05-14T02:57:57.773Z,55.98
2023-05-14T02:58:57.774Z,53.53
2023-05-14T02:59:57.742Z,53.19
2023-05-14T03:00:57.782Z,52.61
2023-05-14T03:01:57.743Z,54.55
2023-05-14T03:02:57.716Z,54.63
2023-05-14T03:03:57.706Z,53.64
2023-05-14T03:04:57.694Z,53.53
2023-05-14T03:05:57.686Z,55.45
2023-05-14T03:06:58.504Z,54.12
2023-05-14T03:07:57.644Z,55.11
2023-05-14T03:08:57.648Z,54.30
2023-05-14T03:09:57.639Z,54.58
2023-05-14T03:10:57.638Z,53.87
2023-05-14T03:11:57.624Z,55.47
2023-05-14T03:12:57.598Z,53.91
2023-05-14T03:13:57.576Z,54.60
2023-05-14T03:14:57.577Z,55.44
2023-05-14T03:15:57.574Z,53.19
2023-05-14T03:16:57.666Z,55.02
2023-05-14T03:17:57.548Z,53.42
2023-05-14T03:18:57.583Z,51.71
2023-05-14T03:19:57.505Z,55.73
2023-05-14T03:20:58.567Z,55.15
2023-05-14T03:21:57.468Z,54.26
2023-05-14T03:22:57.467Z,54.67
2023-05-14T03:23:57.492Z,56.59
2023-05-14T03:24:57.441Z,54.44
2023-05-14T03:25:57.442Z,52.62
2023-05-14T03:26:57.479Z,53.60
2023-05-14T03:27:57.406Z,53.55
2023-05-14T03:28:57.397Z,56.18
2023-05-14T03:29:57.416Z,53.87
2023-05-14T03:30:57.379Z,54.86
2023-05-14T03:31:57.403Z,53.27
2023-05-14T03:32:58.388Z,54.28
2023-05-14T03:33:57.342Z,55.96
2023-05-14T03:34:57.327Z,55.76
2023-05-14T03:35:57.321Z,56.42
2023-05-14T03:36:57.305Z,55.09
2023-05-14T03:37:57.317Z,54.99
2023-05-14T03:38:57.272Z,54.04
2023-05-14T03:39:57.254Z,57.05
2023-05-14T03:40:57.257Z,53.15
2023-05-14T03:41:57.268Z,54.27
2023-05-14T03:42:57.337Z,54.06
2023-05-14T03:43:57.224Z,54.38
2023-05-14T03:44:57.196Z,53.87
2023-05-14T03:45:57.188Z,52.80
2023-05-14T03:46:57.203Z,51.65
2023-05-14T03:47:57.267Z,52.79
2023-05-14T03:48:57.207Z,53.08
2023-05-14T03:49:57.163Z,51.50
2023-05-14T03:50:57.139Z,51.43
2023-05-14T03:51:57.149Z,51.53
2023-05-14T03:52:57.101Z,52.06
2023-05-14T03:53:57.127Z,51.90
2023-05-14T03:54:57.081Z,51.17
2023-05-14T03:55:57.068Z,52.18
2023-05-14T03:56:57.069Z,51.68
2023-05-14T03:57:57.064Z,51.79
2023-05-14T03:58:57.066Z,52.05
2023-05-14T03:59:57.045Z,51.71
2023-05-14T04:00:57.028Z,51.54
2023-05-14T04:01:57.107Z,52.50
2023-05-14T04:02:57.034Z,53.34
2023-05-14T04:03:57.139Z,51.89
2023-05-14T04:04:57.002Z,52.64
2023-05-14T04:05:56.961Z,52.04
2023-05-14T04:06:56.958Z,51.91
2023-05-14T04:07:56.962Z,50.47
2023-05-14T04:08:56.979Z,49.84
2023-05-14T04:09:56.917Z,50.73
2023-05-14T04:10:56.947Z,51.96
2023-05-14T04:11:56.890Z,50.55
2023-05-14T04:12:56.914Z,51.53
2023-05-14T04:13:56.882Z,53.01
2023-05-14T04:14:56.866Z,51.17
2023-05-14T04:15:56.879Z,51.91
2023-05-14T04:16:56.835Z,53.32
2023-05-14T04:17:56.875Z,50.97
2023-05-14T04:18:56.894Z,51.27
2023-05-14T04:19:56.809Z,50.94
2023-05-14T04:20:56.799Z,52.61
2023-05-14T04:21:57.761Z,50.58
2023-05-14T04:22:56.765Z,52.17
2023-05-14T04:23:56.751Z,52.66
2023-05-14T04:24:56.733Z,53.12
2023-05-14T04:25:56.729Z,51.49
2023-05-14T04:26:56.708Z,53.31
2023-05-14T04:27:56.707Z,52.54
2023-05-14T04:28:56.702Z,51.30
2023-05-14T04:29:56.697Z,52.26
2023-05-14T04:30:56.679Z,50.13
2023-05-14T04:31:56.673Z,52.43
2023-05-14T04:32:56.712Z,51.81
2023-05-14T04:33:56.718Z,52.76
2023-05-14T04:34:56.672Z,52.54
2023-05-14T04:35:56.617Z,52.36
2023-05-14T04:36:56.641Z,52.33
2023-05-14T04:37:56.595Z,52.85
2023-05-14T04:38:56.672Z,51.18
2023-05-14T04:39:56.568Z,50.74
2023-05-14T04:40:56.574Z,53.78
2023-05-14T04:41:56.551Z,53.25
2023-05-14T04:42:56.614Z,52.65
2023-05-14T04:43:56.793Z,53.53
2023-05-14T04:44:56.670Z,52.84
2023-05-14T04:45:56.742Z,51.83
2023-05-14T04:46:56.534Z,52.33
2023-05-14T04:47:56.602Z,50.01
2023-05-14T04:48:56.523Z,50.20
2023-05-14T04:49:56.501Z,51.35
2023-05-14T04:50:56.460Z,52.46
2023-05-14T04:51:56.514Z,52.92
2023-05-14T04:52:56.657Z,50.65
2023-05-14T04:53:56.534Z,53.35
2023-05-14T04:54:56.480Z,51.31
2023-05-14T04:55:56.469Z,52.78
2023-05-14T04:56:56.867Z,53.15
2023-05-14T04:57:56.441Z,50.84
2023-05-14T04:58:56.415Z,51.13
2023-05-14T04:59:56.352Z,53.21
2023-05-14T05:00:56.391Z,51.30
2023-05-14T05:01:56.380Z,51.67
2023-05-14T05:02:56.321Z,53.48
2023-05-14T05:03:56.343Z,51.05
2023-05-14T05:04:56.307Z,52.16
2023-05-14T05:05:56.637Z,53.28
2023-05-14T05:06:56.258Z,52.17
2023-05-14T05:07:56.292Z,51.49
2023-05-14T05:08:56.289Z,51.53
2023-05-14T05:09:56.257Z,53.05
2023-05-14T05:10:56.210Z,51.80
2023-05-14T05:11:56.217Z,54.32
2023-05-14T05:12:56.201Z,53.11
2023-05-14T05:13:56.236Z,51.55
2023-05-14T05:14:56.185Z,52.39
2023-05-14T05:15:56.225Z,52.11
2023-05-14T05:16:56.163Z,51.52
2023-05-14T05:17:56.159Z,50.70
2023-05-14T05:18:56.139Z,52.05
2023-05-14T05:19:56.145Z,51.71
2023-05-14T05:20:56.136Z,53.37
2023-05-14T05:21:56.245Z,53.04
2023-05-14T05:22:56.123Z,53.42
2023-05-14T05:23:57.069Z,54.01
2023-05-14T05:24:56.095Z,51.96
2023-05-14T05:25:56.057Z,55.05
2023-05-14T05:26:56.050Z,54.65
2023-05-14T05:27:56.089Z,54.09
2023-05-14T05:28:56.036Z,55.73
2023-05-14T05:29:55.996Z,56.79
2023-05-14T05:30:56.015Z,56.00
2023-05-14T05:31:56.066Z,55.39
2023-05-14T05:32:56.056Z,56.05
2023-05-14T05:33:55.957Z,58.28
2023-05-14T05:34:55.978Z,54.92
2023-05-14T05:35:55.952Z,56.45
2023-05-14T05:36:55.920Z,55.60
2023-05-14T05:37:55.891Z,53.95
2023-05-14T05:38:56.967Z,58.16
2023-05-14T05:39:55.892Z,55.37
2023-05-14T05:40:55.891Z,54.69
2023-05-14T05:41:55.856Z,55.73
2023-05-14T05:42:55.873Z,56.38
2023-05-14T05:43:55.847Z,54.69
2023-05-14T05:44:55.840Z,55.77
2023-05-14T05:45:55.854Z,53.63
2023-05-14T05:46:55.916Z,55.90
2023-05-14T05:47:56.009Z,56.35
2023-05-14T05:48:55.804Z,54.84
2023-05-14T05:49:55.819Z,56.11
2023-05-14T05:50:55.832Z,55.95
2023-05-14T05:51:56.490Z,54.39
2023-05-14T05:52:55.760Z,55.56
2023-05-14T05:53:55.744Z,55.11
2023-05-14T05:54:55.727Z,53.79
2023-05-14T05:55:55.710Z,52.57
2023-05-14T05:56:55.758Z,56.26
2023-05-14T05:57:55.677Z,56.35
2023-05-14T05:58:55.698Z,56.52
2023-05-14T05:59:55.672Z,57.21
2023-05-14T06:00:56.371Z,58.63
2023-05-14T06:01:55.673Z,55.59
2023-05-14T06:02:55.690Z,55.88
2023-05-14T06:03:55.644Z,56.07
2023-05-14T06:04:55.688Z,57.55
2023-05-14T06:05:55.623Z,58.18
2023-05-14T06:06:55.578Z,58.25
2023-05-14T06:07:55.636Z,58.54
2023-05-14T06:08:55.575Z,56.79
2023-05-14T06:09:55.546Z,57.55
2023-05-14T06:10:55.548Z,56.81
2023-05-14T06:11:55.539Z,57.37
2023-05-14T06:12:55.550Z,59.05
2023-05-14T06:13:55.505Z,58.47
2023-05-14T06:14:55.575Z,59.06
2023-05-14T06:15:55.479Z,59.42
2023-05-14T06:16:55.630Z,55.06
2023-05-14T06:17:55.515Z,58.68
2023-05-14T06:18:55.517Z,59.51
2023-05-14T06:19:55.471Z,57.81
2023-05-14T06:20:55.611Z,59.80
2023-05-14T06:21:55.633Z,59.22
2023-05-14T06:23:30.794Z,62.14
2023-05-14T06:23:55.654Z,62.78
2023-05-14T07:15:38.648Z,58.06
2023-05-14T07:16:38.830Z,58.66
2023-05-14T07:17:38.652Z,57.36
2023-05-14T07:18:38.621Z,59.16
2023-05-14T07:19:38.622Z,59.44
2023-05-14T07:20:38.586Z,60.17
2023-05-14T07:21:38.619Z,60.36
2023-05-14T07:22:38.585Z,61.63
2023-05-14T07:23:38.550Z,60.87
2023-05-14T07:24:38.573Z,61.67
2023-05-14T07:25:38.531Z,61.02
2023-05-14T07:26:38.555Z,59.05
2023-05-14T07:27:38.612Z,60.78
2023-05-14T07:28:38.699Z,58.28
2023-05-14T07:29:38.644Z,59.71
2023-05-14T07:31:14.510Z,60.98
2023-05-14T07:31:38.852Z,60.21
2023-05-14T07:32:38.577Z,60.89
2023-05-14T07:33:38.517Z,60.32
2023-05-14T07:34:38.767Z,61.47
2023-05-14T07:35:38.487Z,59.94
2023-05-14T07:36:38.554Z,62.09
2023-05-14T07:37:39.153Z,59.13
2023-05-14T07:48:57.810Z,57.97
2023-05-14T07:49:57.911Z,56.52
2023-05-14T07:50:57.726Z,57.05
2023-05-14T07:51:57.677Z,57.42
2023-05-14T07:52:57.843Z,55.39
2023-05-14T07:53:57.690Z,55.50
2023-05-14T07:54:57.672Z,56.15
2023-05-14T07:55:57.633Z,56.48
2023-05-14T07:56:57.645Z,56.96
2023-05-14T08:06:39.494Z,57.36
2023-05-14T08:07:39.349Z,58.25
2023-05-14T08:08:39.298Z,56.03
2023-05-14T08:09:39.291Z,57.65
2023-05-14T08:10:39.389Z,56.68
2023-05-14T08:11:39.314Z,55.76
2023-05-14T08:12:39.296Z,56.13
2023-05-14T08:13:39.248Z,59.41
2023-05-14T08:14:39.289Z,57.14
2023-05-14T08:15:39.336Z,55.76
2023-05-14T08:16:40.627Z,56.11
2023-05-14T08:17:40.371Z,58.11
2023-05-14T08:18:40.368Z,56.21
2023-05-14T08:19:40.313Z,58.42
2023-05-14T08:20:40.283Z,57.52
2023-05-14T08:21:40.326Z,58.08
2023-05-14T08:22:40.266Z,58.16
2023-05-14T08:23:40.266Z,57.69
2023-05-14T08:24:40.239Z,56.68
2023-05-14T08:25:40.228Z,56.98
2023-05-14T08:26:40.248Z,59.19
2023-05-14T08:27:40.188Z,55.82
2023-05-14T08:28:40.195Z,57.22
2023-05-14T08:29:40.168Z,55.92
2023-05-14T08:30:40.164Z,58.06
2023-05-14T08:31:40.160Z,59.71
2023-05-14T08:32:40.195Z,57.72
2023-05-14T08:33:40.124Z,56.74
2023-05-14T08:34:40.430Z,57.89
2023-05-14T08:35:40.110Z,59.22
2023-05-14T08:36:40.081Z,57.92
2023-05-14T08:37:40.128Z,56.67
2023-05-14T08:38:40.056Z,55.31
2023-05-14T08:39:40.059Z,56.00
2023-05-14T08:40:40.049Z,56.79
2023-05-14T08:41:40.010Z,56.28
2023-05-14T08:42:40.031Z,58.44
2023-05-14T08:43:40.014Z,58.35
2023-05-14T08:44:40.009Z,57.76
2023-05-14T08:45:39.990Z,56.28
2023-05-14T08:46:39.969Z,55.92
2023-05-14T08:47:39.998Z,55.90
2023-05-14T08:48:39.977Z,57.46
2023-05-14T08:49:39.939Z,57.38
2023-05-14T08:50:39.916Z,58.48
2023-05-14T08:51:39.885Z,58.06
2023-05-14T08:52:39.903Z,59.39
2023-05-14T08:53:40.010Z,59.91
2023-05-14T08:54:39.859Z,59.68
2023-05-14T08:55:39.873Z,56.40
2023-05-14T08:56:39.830Z,56.25
2023-05-14T08:57:39.822Z,53.87
2023-05-14T08:58:39.821Z,53.55
2023-05-14T08:59:39.856Z,53.49
2023-05-14T09:00:39.777Z,54.75
2023-05-14T09:01:39.818Z,55.38
2023-05-14T09:02:39.851Z,55.67
2023-05-14T09:03:39.821Z,54.33
2023-05-14T09:04:39.775Z,56.60
2023-05-14T09:05:39.712Z,55.61
2023-05-14T09:06:39.718Z,55.99
2023-05-14T09:07:39.682Z,57.23
2023-05-14T09:08:39.789Z,55.81
2023-05-14T09:09:39.726Z,54.24
2023-05-14T09:10:39.680Z,52.96
2023-05-14T09:11:39.649Z,53.14
2023-05-14T09:12:39.636Z,55.17
2023-05-14T09:13:39.611Z,56.73
2023-05-14T09:14:39.595Z,54.00
2023-05-14T09:15:39.622Z,53.47
2023-05-14T09:16:39.614Z,53.89
2023-05-14T09:17:39.567Z,54.03
2023-05-14T09:18:39.587Z,53.28
2023-05-14T09:19:39.551Z,55.82
2023-05-14T09:20:39.572Z,54.82
2023-05-14T09:21:39.565Z,54.29
2023-05-14T09:22:39.504Z,56.74
2023-05-14T09:23:39.496Z,56.42
2023-05-14T09:24:39.484Z,56.74
2023-05-14T09:25:39.547Z,55.76
2023-05-14T09:26:39.470Z,58.74
2023-05-14T09:27:39.437Z,59.77
2023-05-14T09:28:39.424Z,59.03
2023-05-14T09:29:39.436Z,56.56
2023-05-14T09:30:39.407Z,57.82
2023-05-14T09:31:39.495Z,56.97
2023-05-14T09:32:39.476Z,56.83
2023-05-14T09:33:39.384Z,57.58
2023-05-14T09:34:39.358Z,57.32
2023-05-14T09:35:39.342Z,57.29
2023-05-14T09:36:39.380Z,56.13
2023-05-14T09:37:39.314Z,56.85
2023-05-14T09:38:39.316Z,57.69
2023-05-14T09:39:39.298Z,59.71
2023-05-14T09:40:39.276Z,55.11
2023-05-14T09:41:39.263Z,55.13
2023-05-14T09:42:39.274Z,54.85
2023-05-14T09:43:39.252Z,58.16
2023-05-14T09:44:39.240Z,59.30
2023-05-14T09:45:39.206Z,58.72
2023-05-14T09:46:39.213Z,60.56
2023-05-14T09:47:39.271Z,59.35
2023-05-14T09:48:39.727Z,58.92
2023-05-14T09:49:39.173Z,59.64
2023-05-14T09:50:39.172Z,58.35
2023-05-14T09:51:39.134Z,57.10
2023-05-14T09:52:39.151Z,58.13
2023-05-14T09:53:39.121Z,56.42
2023-05-14T09:54:39.089Z,55.89
2023-05-14T09:55:39.098Z,59.35
2023-05-14T09:56:39.081Z,57.86
2023-05-14T09:57:39.496Z,58.02
2023-05-14T09:58:39.132Z,59.26
2023-05-14T09:59:39.051Z,54.87
2023-05-14T10:00:39.028Z,54.67
2023-05-14T10:01:39.316Z,55.33
2023-05-14T10:02:39.091Z,55.74
2023-05-14T10:03:39.049Z,57.38
2023-05-14T10:04:39.067Z,56.44
2023-05-14T10:05:38.979Z,55.38
2023-05-14T10:06:38.951Z,55.82
2023-05-14T10:07:38.942Z,55.08
2023-05-14T10:08:38.943Z,55.72
2023-05-14T10:09:38.954Z,55.43
2023-05-14T10:10:38.922Z,55.65
2023-05-14T10:11:38.964Z,55.40
2023-05-14T10:12:38.871Z,54.66
2023-05-14T10:13:38.874Z,55.40
2023-05-14T10:14:39.133Z,54.44
2023-05-14T10:15:38.894Z,55.36
2023-05-14T10:16:38.880Z,53.14
2023-05-14T10:17:38.938Z,55.27
2023-05-14T10:18:38.848Z,53.99
2023-05-14T10:19:38.814Z,55.15
2023-05-14T10:20:38.856Z,55.97
2023-05-14T10:21:38.779Z,55.88
2023-05-14T10:22:38.765Z,54.95
2023-05-14T10:23:38.739Z,55.24
2023-05-14T10:24:38.803Z,54.70
2023-05-14T10:25:38.756Z,57.04
2023-05-14T10:26:38.738Z,58.15
2023-05-14T10:27:38.751Z,53.91
2023-05-14T10:28:38.682Z,53.52
2023-05-14T10:29:38.710Z,57.64
2023-05-14T10:30:38.731Z,57.27
2023-05-14T10:31:38.819Z,56.68
2023-05-14T10:32:38.708Z,58.55
2023-05-14T10:33:38.674Z,57.92
2023-05-14T10:34:38.734Z,60.79
2023-05-14T10:35:38.624Z,61.80
2023-05-14T10:36:38.634Z,59.18
2023-05-14T10:37:38.808Z,57.60
2023-05-14T10:38:38.631Z,57.59
2023-05-14T10:39:38.580Z,56.55
2023-05-14T10:40:38.612Z,57.58
2023-05-14T10:41:38.564Z,60.05
2023-05-14T10:42:38.727Z,56.73
2023-05-14T10:43:39.367Z,59.26
2023-05-14T10:44:38.561Z,60.58
2023-05-14T10:45:38.541Z,58.27
2023-05-14T10:46:38.592Z,54.56
2023-05-14T10:47:38.569Z,54.04
2023-05-14T10:48:38.489Z,55.85
2023-05-14T10:49:43.538Z,55.84
2023-05-14T10:50:38.495Z,57.09
2023-05-14T10:51:38.611Z,55.23
2023-05-14T10:52:39.204Z,57.42
2023-05-14T10:53:38.432Z,59.78
2023-05-14T10:54:38.459Z,59.74
2023-05-14T10:55:38.506Z,61.35
2023-05-14T10:56:38.465Z,61.36
2023-05-14T10:57:38.431Z,61.05
2023-05-14T10:58:38.394Z,61.71
2023-05-14T10:59:38.494Z,59.71
2023-05-14T11:00:38.384Z,62.84
2023-05-14T11:01:38.436Z,62.77
2023-05-14T11:02:38.418Z,63.87
2023-05-14T11:03:38.366Z,62.82
2023-05-14T11:04:38.326Z,60.06
2023-05-14T11:05:38.296Z,61.45
2023-05-14T11:06:38.306Z,60.92
2023-05-14T11:07:38.309Z,59.94
2023-05-14T11:08:38.277Z,58.37
2023-05-14T11:09:38.578Z,56.29
2023-05-14T11:10:39.172Z,54.98
2023-05-14T11:11:38.220Z,53.58
2023-05-14T11:12:38.283Z,55.59
2023-05-14T11:13:38.230Z,55.71
2023-05-14T11:14:38.463Z,57.96
2023-05-14T11:15:39.283Z,56.05
2023-05-14T11:16:38.179Z,57.18
2023-05-14T11:17:38.371Z,56.05
2023-05-14T11:18:38.207Z,56.11
2023-05-14T11:19:38.180Z,57.69
2023-05-14T11:20:38.120Z,56.13
2023-05-14T11:21:38.263Z,57.38
2023-05-14T11:22:38.164Z,56.58
2023-05-14T11:23:38.134Z,57.70
2023-05-14T11:24:38.067Z,58.94
2023-05-14T11:25:38.114Z,61.64
2023-05-14T11:26:38.026Z,59.17
2023-05-14T11:27:38.194Z,56.59
2023-05-14T11:28:38.110Z,58.45
2023-05-14T11:29:38.028Z,60.47
2023-05-14T11:30:38.011Z,59.62
2023-05-14T11:31:38.122Z,59.96
2023-05-14T11:32:38.032Z,62.04
2023-05-14T11:33:38.050Z,63.66
2023-05-14T11:34:37.970Z,63.28
2023-05-14T11:35:37.981Z,60.14
2023-05-14T11:36:37.950Z,60.09
2023-05-14T11:37:37.889Z,59.96
2023-05-14T11:38:37.903Z,63.24
2023-05-14T11:39:38.000Z,64.41
2023-05-14T11:40:37.844Z,64.90
2023-05-14T11:41:37.830Z,63.88
2023-05-14T11:42:37.813Z,62.91
2023-05-14T11:43:37.858Z,58.10
2023-05-14T11:44:37.812Z,59.11
2023-05-14T11:45:37.802Z,58.18
2023-05-14T11:46:37.834Z,60.43
2023-05-14T11:47:37.864Z,61.13
2023-05-14T11:48:37.781Z,61.50
2023-05-14T11:49:37.749Z,62.47
2023-05-14T11:50:37.716Z,61.25
2023-05-14T11:51:37.714Z,57.70
2023-05-14T11:52:37.733Z,57.42
2023-05-14T11:53:37.696Z,58.80
2023-05-14T11:54:37.671Z,60.35
2023-05-14T11:55:37.770Z,61.43
2023-05-14T11:56:37.660Z,63.93
2023-05-14T11:57:37.633Z,62.58
2023-05-14T11:58:37.697Z,62.93
2023-05-14T11:59:37.619Z,63.64
2023-05-14T12:00:37.677Z,62.82
2023-05-14T12:01:37.623Z,64.15
2023-05-14T12:02:37.706Z,64.40
2023-05-14T12:03:37.820Z,62.79
2023-05-14T12:04:37.619Z,61.64
2023-05-14T12:05:37.605Z,63.89
2023-05-14T12:06:37.646Z,64.59
2023-05-14T12:07:37.539Z,64.79
2023-05-14T12:08:37.528Z,63.83
2023-05-14T12:09:37.532Z,63.51
2023-05-14T12:10:37.485Z,64.12
2023-05-14T12:11:37.518Z,63.10
2023-05-14T12:12:37.544Z,63.51
2023-05-14T12:13:37.464Z,61.31
2023-05-14T12:14:37.478Z,62.54
2023-05-14T12:15:37.488Z,61.07
2023-05-14T12:16:38.500Z,61.23
2023-05-14T12:17:38.481Z,59.42
2023-05-14T12:18:37.509Z,55.31
2023-05-14T12:19:37.406Z,56.26
2023-05-14T12:20:37.368Z,57.96
2023-05-14T12:21:37.355Z,59.29
2023-05-14T12:22:37.368Z,58.32
2023-05-14T12:23:37.320Z,58.50
2023-05-14T12:24:37.313Z,60.49
2023-05-14T12:25:37.372Z,59.26
2023-05-14T12:26:37.430Z,55.46
2023-05-14T12:27:37.584Z,56.24
2023-05-14T12:28:38.530Z,58.20
2023-05-14T12:29:37.384Z,57.54
2023-05-14T12:30:37.285Z,60.36
2023-05-14T12:31:37.384Z,63.05
2023-05-14T12:32:37.456Z,62.30
2023-05-14T12:33:37.321Z,66.10
2023-05-14T12:34:37.678Z,65.62
2023-05-14T13:30:18.701Z,62.17
2023-05-14T13:31:18.460Z,61.67
2023-05-14T13:32:17.827Z,58.98
2023-05-14T13:33:18.293Z,61.63
2023-05-14T13:34:18.062Z,59.25
2023-05-14T13:35:17.897Z,59.48
2023-05-14T13:36:17.970Z,60.50
2023-05-14T13:37:19.127Z,61.12
2023-05-14T13:38:19.426Z,60.40
2023-05-14T13:39:18.155Z,58.37
2023-05-14T13:40:18.708Z,59.67
2023-05-14T13:41:18.165Z,59.12
2023-05-14T13:42:18.844Z,58.75
2023-05-14T13:43:18.190Z,58.69
2023-05-14T13:44:18.160Z,60.27
2023-05-14T13:45:18.065Z,60.39
2023-05-14T13:46:17.929Z,59.02
2023-05-14T13:47:18.396Z,59.03
2023-05-14T13:48:17.831Z,61.41
2023-05-14T13:49:17.731Z,61.14
2023-05-14T13:50:17.854Z,59.75
2023-05-14T13:51:17.656Z,58.34
2023-05-14T13:52:17.666Z,61.08
2023-05-14T13:53:17.569Z,60.21
2023-05-14T13:54:17.595Z,59.52
2023-05-14T13:55:17.587Z,58.41
2023-05-14T13:56:17.551Z,58.24
2023-05-14T13:57:18.606Z,57.79
2023-05-14T13:58:17.504Z,57.70
2023-05-14T13:59:17.525Z,57.71
2023-05-14T14:00:17.625Z,56.60
2023-05-14T14:01:17.826Z,56.41
2023-05-14T14:02:17.486Z,57.92
2023-05-14T14:03:17.491Z,58.43
2023-05-14T14:04:17.437Z,56.91
2023-05-14T14:05:18.097Z,54.63
2023-05-14T14:06:17.813Z,55.70
2023-05-14T14:07:17.487Z,55.44
2023-05-14T14:08:23.537Z,56.90
2023-05-14T14:09:18.596Z,57.29
2023-05-14T14:10:17.519Z,54.21
2023-05-14T14:11:17.489Z,55.35
2023-05-14T14:12:17.838Z,56.90
2023-05-14T14:13:17.471Z,58.09
2023-05-14T15:42:01.104Z,56.54
2023-05-14T15:43:01.181Z,55.94
2023-05-14T15:44:01.038Z,56.16
2023-05-14T15:45:00.967Z,55.82
2023-05-14T15:46:00.984Z,56.71
2023-05-14T15:47:00.961Z,57.25
2023-05-14T15:48:00.980Z,57.60
2023-05-14T15:49:01.373Z,55.53
2023-05-14T15:50:00.989Z,57.55
2023-05-14T15:51:00.896Z,56.58
2023-05-14T18:26:24.907Z,59.41
2023-05-14T18:27:25.205Z,57.16
2023-05-14T18:28:24.755Z,56.24
2023-05-14T18:29:25.750Z,57.79
2023-05-14T18:30:24.773Z,60.21
2023-05-14T18:31:24.720Z,57.35
2023-05-14T18:32:24.719Z,55.04
2023-05-14T18:33:24.706Z,56.10
2023-05-14T18:34:25.670Z,56.86
2023-05-14T18:35:24.917Z,54.40
2023-05-14T18:36:24.675Z,57.44
2023-05-14T18:37:24.672Z,57.19
2023-05-14T18:38:24.651Z,55.42
2023-05-14T18:39:24.652Z,55.68
2023-05-14T18:40:24.689Z,55.66
2023-05-14T18:41:24.699Z,54.45
2023-05-14T18:42:24.586Z,56.49
2023-05-14T18:43:24.580Z,56.87
2023-05-14T18:44:24.586Z,55.47
2023-05-14T18:45:24.835Z,55.54
2023-05-14T18:46:24.581Z,56.60
2023-05-14T18:47:24.581Z,54.50
2023-05-14T18:48:24.535Z,55.37
2023-05-14T18:49:24.525Z,56.45
2023-05-14T18:50:24.537Z,57.74
2023-05-14T18:51:24.518Z,57.26
2023-05-14T18:52:24.482Z,57.74
2023-05-14T18:53:25.466Z,57.76
2023-05-14T18:54:24.482Z,56.79
2023-05-14T18:55:24.613Z,55.39
2023-05-14T18:56:24.459Z,54.27
2023-05-14T18:57:24.447Z,54.45
2023-05-14T18:58:41.418Z,56.39
2023-05-14T18:59:24.482Z,55.68